Terminal Aerodrome Forecast
Issued by NWS

Home | Current Version | Previous Version | Text Only | Print | Product List | Glossary On
Versions: 1 2 3 4 5 6 7 8 9 10 11 12 13 14 15 16 17 18 19 20 21 22 23 24 25 26 27 28 29 30 31 32
000
FTAK31 PANC 221414 AAB
TAFAIL
TAF AMD
PAIL 221414Z 2214/2312 14009G15KT 3SM -SN BR OVC012
      TEMPO 2214/2218 20008KT 2SM -SN FEW008 BKN025
     FM221800 20008G12KT P6SM -SHSN BKN035
     FM230000 12007KT P6SM BKN050=

USA.gov is the U.S. government's official web portal to all federal, state and local government web resources and services.